Time;durP1;ratioP1;P1;durP2;ratioP2;P2;SDS_P1;SDS_P2;PMS_P1;PMS_P2;Temp;Humidity;BMP_temperature;BMP_pressure;BME280_temperature;BME280_humidity;BME280_pressure;Samples;Min_cycle;Max_cycle;Signal;HPM_P1;HPM_P2
2022/09/29 00:04:41;;;;;;;1.80;1.70;;;12.90;44.10;;;;;;10468582;28;20326;-75
2022/09/29 00:09:44;;;;;;;1.97;1.77;;;12.90;44.10;;;;;;10472952;28;20225;-75
2022/09/29 00:14:47;;;;;;;1.50;1.40;;;12.90;44.00;;;;;;10468132;28;20219;-78
2022/09/29 00:19:51;;;;;;;1.70;1.60;;;12.90;44.00;;;;;;10477464;28;20228;-76
2022/09/29 00:24:54;;;;;;;1.87;1.77;;;13.00;44.10;;;;;;10472769;28;20259;-75
2022/09/29 00:29:57;;;;;;;1.83;1.73;;;13.00;44.60;;;;;;10477755;28;20806;-75
2022/09/29 00:35:02;;;;;;;2.53;1.50;;;13.00;43.80;;;;;;10469040;28;20220;-76
2022/09/29 00:40:06;;;;;;;1.50;1.40;;;12.90;43.80;;;;;;10472620;28;20578;-75
2022/09/29 00:45:21;;;;;;;1.50;1.40;;;12.90;43.80;;;;;;10471630;28;21269;-75
2022/09/29 00:50:33;;;;;;;1.60;1.50;;;12.90;43.80;;;;;;10470550;28;20300;-76
2022/09/29 00:55:39;;;;;;;1.60;1.50;;;12.90;43.80;;;;;;10475937;28;20228;-76
2022/09/29 01:00:42;;;;;;;1.47;1.37;;;12.90;43.80;;;;;;10470959;28;20229;-76
2022/09/29 01:05:51;;;;;;;1.90;1.53;;;12.90;43.80;;;;;;10471150;28;20232;-76
2022/09/29 01:10:54;;;;;;;1.43;1.33;;;12.80;44.00;;;;;;10470743;28;20227;-76
2022/09/29 01:15:57;;;;;;;2.27;1.50;;;12.90;43.80;;;;;;10477723;28;20309;-76
2022/09/29 01:21:13;;;;;;;2.90;1.47;;;12.90;43.90;;;;;;10466871;28;20278;-76
2022/09/29 01:27:04;;;;;;;1.67;1.40;;;12.80;43.90;;;;;;10478433;28;20236;-76
2022/09/29 01:32:19;;;;;;;1.77;1.57;;;12.80;43.90;;;;;;10472564;28;20346;-76
2022/09/29 01:37:31;;;;;;;1.80;1.70;;;12.90;44.00;;;;;;10475941;28;20240;-76
2022/09/29 01:42:42;;;;;;;1.70;1.60;;;12.80;43.80;;;;;;10470224;28;20744;-76
2022/09/29 01:47:51;;;;;;;3.13;1.67;;;12.80;43.80;;;;;;10469654;28;20277;-76
2022/09/29 01:53:00;;;;;;;2.30;1.50;;;12.80;43.90;;;;;;10469642;28;20223;-76
2022/09/29 01:58:06;;;;;;;1.80;1.70;;;12.80;43.80;;;;;;10467032;28;20275;-76
2022/09/29 02:03:16;;;;;;;1.80;1.70;;;12.70;43.70;;;;;;10470649;28;20228;-76
2022/09/29 02:08:25;;;;;;;2.17;1.50;;;12.70;43.80;;;;;;10469818;22;20385;-72
2022/09/29 02:13:32;;;;;;;1.73;1.63;;;12.70;43.80;;;;;;10463847;28;20337;-72
2022/09/29 02:18:42;;;;;;;3.13;1.80;;;12.60;43.80;;;;;;10462701;28;20290;-72
2022/09/29 02:23:45;;;;;;;1.60;1.50;;;12.60;44.20;;;;;;10461673;28;20322;-69
2022/09/29 02:28:49;;;;;;;1.50;1.40;;;12.60;44.00;;;;;;10463712;28;20227;-69
2022/09/29 02:33:53;;;;;;;1.70;1.60;;;12.60;44.10;;;;;;10461349;28;20232;-69
2022/09/29 02:39:02;;;;;;;1.50;1.40;;;12.60;44.20;;;;;;10466031;28;20684;-69
2022/09/29 02:44:31;;;;;;;1.50;1.40;;;12.60;44.10;;;;;;10476770;28;20583;-69
2022/09/29 02:49:49;;;;;;;2.50;1.50;;;12.60;44.10;;;;;;10472738;28;20221;-69
2022/09/29 02:55:06;;;;;;;1.53;1.43;;;12.60;44.10;;;;;;10466841;28;20224;-69
2022/09/29 03:00:12;;;;;;;1.50;1.40;;;12.60;44.00;;;;;;10465158;28;20233;-69
2022/09/29 03:05:18;;;;;;;2.60;1.40;;;12.60;43.90;;;;;;10471235;28;20233;-69
2022/09/29 03:10:22;;;;;;;1.30;1.20;;;12.60;43.90;;;;;;10470184;28;20241;-69
2022/09/29 03:15:31;;;;;;;1.60;1.50;;;12.60;43.80;;;;;;10466058;28;20239;-69
2022/09/29 03:20:35;;;;;;;1.33;1.27;;;12.50;43.70;;;;;;10469710;28;20747;-69
2022/09/29 03:25:39;;;;;;;1.83;1.40;;;12.50;43.70;;;;;;10465451;28;20621;-69
2022/09/29 03:30:43;;;;;;;3.03;1.37;;;12.50;43.50;;;;;;10467127;28;20731;-69
2022/09/29 03:35:48;;;;;;;1.53;1.30;;;12.50;43.50;;;;;;10467350;28;20232;-69
2022/09/29 03:40:51;;;;;;;1.33;1.23;;;12.50;43.40;;;;;;10469994;28;20704;-69
2022/09/29 03:45:56;;;;;;;2.37;1.50;;;12.40;43.20;;;;;;10473772;28;20315;-69
2022/09/29 03:51:00;;;;;;;1.50;1.40;;;12.40;43.30;;;;;;10467794;28;20232;-69
2022/09/29 03:56:05;;;;;;;1.60;1.50;;;12.30;43.10;;;;;;10466470;28;20722;-69
2022/09/29 04:01:08;;;;;;;1.60;1.50;;;12.30;43.30;;;;;;10471110;28;20256;-69
2022/09/29 04:06:13;;;;;;;3.93;2.27;;;12.30;43.40;;;;;;10465883;28;20240;-69
2022/09/29 04:11:16;;;;;;;2.13;2.03;;;12.20;43.30;;;;;;10467972;28;20286;-69
2022/09/29 04:16:19;;;;;;;2.50;2.30;;;12.20;43.40;;;;;;10465645;28;20302;-69
2022/09/29 04:21:23;;;;;;;2.53;2.33;;;12.20;43.30;;;;;;10464378;28;20238;-69
2022/09/29 04:26:27;;;;;;;3.20;2.40;;;12.20;43.30;;;;;;10463153;28;20707;-69
2022/09/29 04:31:30;;;;;;;2.47;2.13;;;12.20;43.10;;;;;;10469322;28;20279;-69
2022/09/29 04:36:37;;;;;;;2.90;2.70;;;12.10;43.10;;;;;;10469528;28;20645;-69
2022/09/29 04:41:40;;;;;;;3.50;3.00;;;12.00;43.00;;;;;;10468390;28;20224;-69
2022/09/29 04:46:43;;;;;;;3.20;3.00;;;12.00;43.20;;;;;;10465757;28;20228;-69
2022/09/29 04:51:49;;;;;;;3.60;2.80;;;12.00;43.30;;;;;;10469078;28;20276;-69
2022/09/29 04:56:52;;;;;;;5.93;4.63;;;12.00;43.40;;;;;;10465060;28;20291;-69
2022/09/29 05:01:55;;;;;;;4.20;3.80;;;11.90;43.30;;;;;;10467809;28;20229;-69
2022/09/29 05:06:59;;;;;;;5.03;4.37;;;11.90;43.50;;;;;;10466485;28;20247;-69
2022/09/29 05:12:03;;;;;;;3.67;3.37;;;11.90;43.80;;;;;;10463819;28;20231;-69
2022/09/29 05:17:06;;;;;;;3.70;3.40;;;11.90;43.70;;;;;;10463228;28;20235;-69
2022/09/29 05:22:10;;;;;;;3.43;3.10;;;11.90;43.90;;;;;;10466672;28;20228;-69
2022/09/29 05:27:13;;;;;;;3.70;3.37;;;11.90;45.00;;;;;;10460799;28;20624;-69
2022/09/29 05:32:16;;;;;;;3.60;3.10;;;11.90;44.50;;;;;;10468448;28;20220;-69
2022/09/29 05:37:21;;;;;;;3.90;3.17;;;11.90;44.40;;;;;;10461372;28;20999;-69
2022/09/29 05:42:26;;;;;;;3.00;2.70;;;12.00;44.50;;;;;;10462750;28;20227;-69
2022/09/29 05:47:29;;;;;;;2.70;2.50;;;12.00;44.40;;;;;;10468062;28;20224;-69
2022/09/29 05:52:34;;;;;;;4.40;2.43;;;12.00;44.30;;;;;;10465678;28;20692;-69
2022/09/29 05:57:37;;;;;;;2.50;2.30;;;12.00;44.50;;;;;;10464266;28;20267;-69
2022/09/29 06:02:40;;;;;;;2.13;1.97;;;12.00;44.50;;;;;;10466633;28;20231;-69
2022/09/29 06:07:44;;;;;;;3.00;2.70;;;12.00;44.60;;;;;;10463599;28;20711;-69
2022/09/29 06:12:47;;;;;;;2.87;2.57;;;12.10;45.00;;;;;;10467072;28;20216;-69
2022/09/29 06:17:55;;;;;;;3.60;2.77;;;12.10;44.90;;;;;;10468338;28;20227;-69
2022/09/29 06:23:00;;;;;;;3.30;3.00;;;12.20;45.40;;;;;;10475922;28;20221;-69
2022/09/29 06:28:03;;;;;;;3.83;3.53;;;12.20;45.20;;;;;;10471314;28;20778;-70
2022/09/29 06:33:06;;;;;;;3.00;2.80;;;12.20;45.00;;;;;;10468936;28;20235;-70
2022/09/29 06:38:11;;;;;;;3.20;2.90;;;12.30;45.00;;;;;;10472164;28;20231;-70
2022/09/29 06:43:15;;;;;;;3.30;3.00;;;12.30;45.20;;;;;;10473425;28;20259;-70
2022/09/29 06:48:18;;;;;;;3.07;2.87;;;12.30;45.00;;;;;;10467856;28;20302;-70
2022/09/29 06:53:22;;;;;;;2.83;2.63;;;12.40;45.20;;;;;;10470373;28;20243;-70
2022/09/29 06:58:39;;;;;;;3.23;3.03;;;12.40;45.40;;;;;;10471221;28;20232;-70
2022/09/29 07:03:42;;;;;;;3.50;3.30;;;12.40;45.30;;;;;;10473740;28;20228;-70
2022/09/29 07:08:46;;;;;;;4.03;3.33;;;12.50;45.30;;;;;;10472711;28;20231;-70
2022/09/29 07:13:51;;;;;;;3.90;3.60;;;12.50;45.50;;;;;;10470008;28;20231;-70
2022/09/29 07:18:56;;;;;;;3.50;3.30;;;12.60;45.70;;;;;;10471321;28;20225;-70
2022/09/29 07:24:01;;;;;;;3.47;3.27;;;12.60;45.40;;;;;;10466868;28;20250;-70
2022/09/29 07:29:04;;;;;;;4.20;3.80;;;12.70;45.90;;;;;;10468336;28;20749;-70
2022/09/29 07:34:08;;;;;;;3.30;3.10;;;12.70;45.70;;;;;;10469424;28;20342;-71
2022/09/29 07:39:12;;;;;;;4.30;3.30;;;12.80;45.80;;;;;;10462746;28;21111;-70
2022/09/29 07:44:15;;;;;;;3.93;3.20;;;12.90;46.10;;;;;;10467209;28;20241;-71
2022/09/29 07:49:18;;;;;;;6.63;5.97;;;13.00;46.10;;;;;;10468318;28;20220;-70
2022/09/29 07:54:23;;;;;;;3.77;3.47;;;13.00;46.10;;;;;;10464947;28;20237;-69
2022/09/29 07:59:31;;;;;;;4.00;3.70;;;13.10;46.20;;;;;;10467524;28;20229;-70
2022/09/29 08:04:35;;;;;;;4.73;3.90;;;13.20;46.00;;;;;;10469325;28;20232;-70
2022/09/29 08:09:39;;;;;;;4.00;3.57;;;13.20;46.00;;;;;;10466973;28;20844;-69
2022/09/29 08:14:43;;;;;;;3.87;3.57;;;13.30;46.20;;;;;;10468652;28;20229;-70
2022/09/29 08:19:47;;;;;;;4.33;3.93;;;13.40;46.20;;;;;;10469483;28;20743;-69
2022/09/29 08:24:51;;;;;;;3.90;3.60;;;13.50;46.20;;;;;;10459989;28;20232;-70
2022/09/29 08:29:55;;;;;;;4.13;3.77;;;13.60;46.40;;;;;;10462193;28;20221;-70
2022/09/29 08:34:59;;;;;;;3.37;3.17;;;13.60;46.20;;;;;;10461364;28;20225;-69
2022/09/29 08:40:03;;;;;;;3.80;3.50;;;13.70;46.20;;;;;;10463712;28;20232;-71
2022/09/29 08:45:13;;;;;;;3.60;3.30;;;13.80;46.20;;;;;;10462529;28;20225;-70
2022/09/29 08:50:27;;;;;;;3.00;2.80;;;13.90;46.00;;;;;;10462199;28;20278;-70
2022/09/29 08:55:41;;;;;;;3.17;2.87;;;14.00;45.60;;;;;;10461792;28;20224;-69
2022/09/29 09:01:00;;;;;;;3.87;3.00;;;14.00;45.60;;;;;;10461175;28;20223;-69
2022/09/29 09:06:14;;;;;;;4.33;3.10;;;14.10;45.50;;;;;;10460487;28;20668;-70
2022/09/29 09:11:32;;;;;;;3.50;3.20;;;14.20;45.60;;;;;;10459281;28;20224;-70
2022/09/29 09:16:45;;;;;;;2.83;2.63;;;14.30;45.50;;;;;;10458786;28;20232;-70
2022/09/29 09:21:54;;;;;;;2.93;2.63;;;14.40;45.30;;;;;;10466131;28;20228;-70
2022/09/29 09:26:59;;;;;;;3.47;3.00;;;14.50;45.00;;;;;;10458270;28;20224;-70
2022/09/29 09:32:07;;;;;;;2.63;2.43;;;14.50;45.00;;;;;;10465326;28;20860;-71
2022/09/29 09:37:16;;;;;;;2.37;2.27;;;14.60;44.90;;;;;;10461855;28;20804;-70
2022/09/29 09:42:24;;;;;;;3.10;2.53;;;14.70;44.80;;;;;;10461033;28;20708;-70
2022/09/29 09:47:31;;;;;;;2.63;2.43;;;14.70;44.10;;;;;;10463582;28;20233;-70
2022/09/29 09:52:41;;;;;;;3.07;2.63;;;14.80;44.20;;;;;;10468040;28;20231;-71
2022/09/29 09:58:01;;;;;;;2.43;2.20;;;14.90;44.30;;;;;;10471435;28;20569;-70
2022/09/29 10:03:06;;;;;;;2.03;1.93;;;14.90;44.30;;;;;;10475187;28;20220;-71
2022/09/29 10:08:21;;;;;;;2.60;2.40;;;15.00;44.30;;;;;;10471614;28;20278;-71
2022/09/29 10:13:27;;;;;;;2.40;2.20;;;15.10;44.40;;;;;;10472141;28;20232;-70
2022/09/29 10:18:40;;;;;;;3.17;2.13;;;15.10;44.40;;;;;;10467692;28;20236;-71
2022/09/29 10:23:51;;;;;;;2.20;2.10;;;15.20;44.40;;;;;;10471398;28;20224;-71
2022/09/29 10:29:00;;;;;;;1.80;1.70;;;15.30;43.80;;;;;;10471314;28;20577;-70
2022/09/29 10:34:16;;;;;;;2.10;2.00;;;15.30;43.70;;;;;;10465501;28;20229;-71
2022/09/29 10:39:43;;;;;;;2.10;2.00;;;15.40;43.40;;;;;;10467876;28;20227;-71
2022/09/29 10:44:52;;;;;;;1.70;1.60;;;15.50;43.20;;;;;;10465470;28;20220;-71
2022/09/29 10:50:12;;;;;;;1.80;1.70;;;15.50;43.30;;;;;;10468819;28;20762;-71
2022/09/29 10:55:18;;;;;;;1.80;1.70;;;15.60;43.20;;;;;;10467098;28;20225;-71
2022/09/29 11:00:29;;;;;;;1.80;1.70;;;15.60;43.60;;;;;;10468515;28;20255;-74
2022/09/29 11:05:33;;;;;;;1.77;1.67;;;15.70;42.90;;;;;;10464944;28;20282;-74
2022/09/29 11:10:38;;;;;;;1.60;1.50;;;15.70;43.60;;;;;;10466550;28;20788;-74
2022/09/29 11:15:42;;;;;;;1.50;1.40;;;15.80;43.10;;;;;;10463704;28;20221;-73
2022/09/29 11:20:49;;;;;;;1.83;1.73;;;15.80;43.20;;;;;;10464470;28;20213;-73
2022/09/29 11:26:12;;;;;;;1.60;1.50;;;15.80;42.80;;;;;;10462889;28;20282;-73
2022/09/29 11:31:35;;;;;;;1.97;1.87;;;15.80;42.40;;;;;;10456253;28;20237;-73
2022/09/29 11:36:47;;;;;;;2.27;1.87;;;15.90;42.50;;;;;;10453774;28;20594;-74
2022/09/29 11:42:01;;;;;;;1.63;1.53;;;15.90;42.50;;;;;;10454994;28;20358;-74
2022/09/29 11:47:16;;;;;;;3.10;1.43;;;15.90;42.10;;;;;;10458629;28;20228;-73
2022/09/29 11:52:47;;;;;;;1.63;1.50;;;15.90;42.50;;;;;;10460966;28;20216;-73
2022/09/29 11:57:58;;;;;;;1.73;1.33;;;15.90;42.20;;;;;;10457459;28;20224;-73
2022/09/29 12:03:34;;;;;;;1.30;1.20;;;15.90;42.80;;;;;;10459172;28;20233;-74
2022/09/29 12:08:52;;;;;;;1.80;1.70;;;15.90;42.20;;;;;;10460450;28;20266;-74
2022/09/29 12:14:03;;;;;;;2.13;1.50;;;15.80;42.20;;;;;;10466212;28;20310;-73
2022/09/29 12:19:12;;;;;;;3.03;2.03;;;15.70;42.60;;;;;;10466042;28;20225;-73
2022/09/29 12:24:18;;;;;;;1.73;1.60;;;15.70;42.90;;;;;;10460931;28;20232;-73
2022/09/29 12:29:33;;;;;;;1.80;1.70;;;15.70;43.20;;;;;;10462111;28;20239;-73
2022/09/29 12:34:44;;;;;;;1.70;1.60;;;15.60;43.40;;;;;;10466439;28;20290;-73
2022/09/29 12:39:59;;;;;;;1.70;1.60;;;15.60;43.60;;;;;;10461378;28;20244;-73
2022/09/29 12:45:08;;;;;;;1.53;1.43;;;15.60;44.00;;;;;;10465239;28;20709;-74
2022/09/29 12:50:19;;;;;;;1.90;1.60;;;15.60;44.00;;;;;;10468492;28;20315;-74
2022/09/29 12:55:29;;;;;;;1.60;1.50;;;15.50;43.40;;;;;;10465932;28;20235;-74
2022/09/29 13:00:36;;;;;;;1.93;1.40;;;15.50;43.70;;;;;;10466881;28;20250;-74
2022/09/29 13:06:14;;;;;;;1.57;1.47;;;15.50;43.70;;;;;;10464297;28;20748;-74
2022/09/29 13:12:00;;;;;;;3.13;1.30;;;15.50;43.20;;;;;;10462978;28;20219;-74
2022/09/29 13:17:22;;;;;;;1.63;1.53;;;15.50;43.70;;;;;;10462229;28;20217;-74
2022/09/29 13:22:42;;;;;;;1.30;1.20;;;15.50;44.40;;;;;;10463459;28;20314;-74
2022/09/29 13:27:46;;;;;;;1.30;1.10;;;15.60;43.20;;;;;;10460197;28;20282;-74
2022/09/29 13:33:00;;;;;;;1.20;1.00;;;15.60;42.90;;;;;;10463454;28;20216;-74
2022/09/29 13:38:07;;;;;;;1.43;1.10;;;15.70;43.30;;;;;;10458738;28;20233;-73
2022/09/29 13:43:37;;;;;;;7.73;6.77;;;15.70;43.40;;;;;;10460937;28;20232;-71
2022/09/29 13:48:54;;;;;;;3.10;2.80;;;15.80;43.20;;;;;;10469370;28;20235;-71
2022/09/29 13:54:33;;;;;;;13.77;10.10;;;15.90;43.30;;;;;;10461539;28;20228;-71
2022/09/29 13:59:38;;;;;;;3.50;3.03;;;15.90;42.90;;;;;;10462006;28;20247;-71
2022/09/29 14:04:52;;;;;;;2.37;1.60;;;16.00;43.30;;;;;;10457498;28;20228;-71
2022/09/29 14:09:56;;;;;;;1.70;1.50;;;16.00;43.00;;;;;;10462758;28;20232;-71
2022/09/29 14:15:08;;;;;;;1.40;1.30;;;15.90;43.40;;;;;;10468609;28;20271;-71
2022/09/29 14:20:19;;;;;;;1.63;1.40;;;15.90;42.70;;;;;;10457311;28;20229;-71
2022/09/29 14:25:55;;;;;;;1.47;1.37;;;15.90;42.80;;;;;;10465686;28;20236;-71
2022/09/29 14:31:01;;;;;;;2.33;1.60;;;15.90;43.00;;;;;;10460438;28;20221;-71
2022/09/29 14:36:10;;;;;;;1.37;1.27;;;15.90;42.90;;;;;;10466391;28;20216;-71
2022/09/29 14:41:25;;;;;;;2.07;1.40;;;15.90;43.00;;;;;;10469700;28;20228;-71
2022/09/29 14:52:22;;;;;;;1.30;1.20;;;15.80;42.90;;;;;;10471360;28;20221;-71
2022/09/29 14:57:49;;;;;;;1.20;1.10;;;15.70;42.50;;;;;;10472157;28;20239;-71
2022/09/29 15:02:56;;;;;;;0.90;0.90;;;15.70;42.50;;;;;;10473149;28;20235;-71
2022/09/29 15:08:27;;;;;;;2.87;1.10;;;15.70;42.70;;;;;;10477349;28;20705;-72
2022/09/29 15:13:31;;;;;;;1.13;1.03;;;15.70;42.60;;;;;;10474655;28;20224;-71
2022/09/29 15:18:57;;;;;;;1.20;1.20;;;15.70;42.80;;;;;;10477080;28;20240;-71
2022/09/29 15:24:14;;;;;;;1.47;1.37;;;15.70;42.40;;;;;;10472513;28;20704;-72
2022/09/29 15:29:19;;;;;;;1.83;1.40;;;15.70;42.30;;;;;;10477993;28;20640;-72
2022/09/29 15:34:25;;;;;;;1.47;1.30;;;15.60;42.80;;;;;;10474660;28;20235;-72
2022/09/29 15:39:43;;;;;;;1.13;1.03;;;15.50;42.50;;;;;;10478917;28;20235;-72
2022/09/29 15:44:54;;;;;;;1.37;1.27;;;15.50;42.50;;;;;;10470127;28;20323;-72
2022/09/29 15:49:58;;;;;;;1.60;1.50;;;15.50;43.00;;;;;;10477625;28;20251;-72
2022/09/29 15:55:01;;;;;;;1.70;1.60;;;15.50;43.10;;;;;;10477944;28;20611;-71
2022/09/29 16:00:06;;;;;;;2.20;2.00;;;15.60;43.40;;;;;;10469163;28;20224;-71
2022/09/29 16:05:14;;;;;;;2.63;2.43;;;15.60;43.60;;;;;;10470280;28;20647;-71
2022/09/29 16:10:19;;;;;;;2.00;1.90;;;15.60;43.60;;;;;;10469385;28;20255;-71
2022/09/29 16:15:29;;;;;;;5.67;2.43;;;15.60;43.50;;;;;;10472703;28;20229;-71
2022/09/29 16:20:35;;;;;;;3.10;2.80;;;15.70;43.70;;;;;;10467719;28;20308;-71
2022/09/29 16:25:38;;;;;;;2.80;2.60;;;15.70;43.90;;;;;;10454017;28;20236;-71
2022/09/29 16:31:01;;;;;;;3.03;2.77;;;15.70;43.60;;;;;;10452996;28;20225;-71
2022/09/29 16:36:11;;;;;;;4.53;3.80;;;15.70;43.70;;;;;;10457130;28;20335;-71
2022/09/29 16:41:20;;;;;;;5.80;5.30;;;15.70;43.80;;;;;;10469954;28;20231;-71
2022/09/29 16:46:25;;;;;;;4.63;4.00;;;15.60;43.60;;;;;;10467975;28;20245;-71
2022/09/29 16:51:31;;;;;;;3.97;3.67;;;15.60;43.30;;;;;;10466954;28;20228;-71
2022/09/29 16:56:44;;;;;;;5.93;5.43;;;15.50;43.80;;;;;;10471901;28;20247;-72
2022/09/29 17:01:48;;;;;;;3.90;3.53;;;15.50;43.80;;;;;;10472975;28;20221;-71
2022/09/29 17:06:53;;;;;;;4.40;2.50;;;15.50;44.10;;;;;;10462424;28;20235;-71
2022/09/29 17:11:58;;;;;;;2.47;2.27;;;15.50;44.30;;;;;;10468898;28;20220;-71
2022/09/29 17:17:03;;;;;;;2.23;1.90;;;15.50;44.50;;;;;;10467440;28;20900;-71
2022/09/29 17:22:24;;;;;;;3.07;2.27;;;15.50;44.30;;;;;;10465976;28;20228;-72
2022/09/29 17:32:49;;;;;;;2.53;2.33;;;15.40;44.20;;;;;;10467661;28;20224;-71
2022/09/29 17:37:54;;;;;;;2.20;2.00;;;15.40;44.00;;;;;;10463082;28;20817;-71
2022/09/29 17:42:59;;;;;;;6.83;3.10;;;15.40;44.00;;;;;;10470414;28;20212;-70
2022/09/29 17:48:03;;;;;;;2.57;2.37;;;15.30;44.00;;;;;;10477392;28;20596;-71
2022/09/29 17:53:10;;;;;;;2.30;2.10;;;15.30;44.10;;;;;;10465873;28;20971;-71
2022/09/29 17:58:14;;;;;;;2.97;2.73;;;15.20;44.50;;;;;;10479238;28;20247;-70
2022/09/29 18:03:19;;;;;;;3.53;3.33;;;15.20;44.50;;;;;;10473055;28;20216;-70
2022/09/29 18:08:26;;;;;;;3.80;3.50;;;15.10;44.40;;;;;;10472839;28;20232;-72
2022/09/29 18:13:31;;;;;;;3.80;3.50;;;15.10;44.40;;;;;;10474943;28;20227;-70
2022/09/29 18:18:36;;;;;;;4.23;3.87;;;15.10;44.40;;;;;;10474576;28;20292;-71
2022/09/29 18:23:41;;;;;;;6.27;4.40;;;15.00;44.30;;;;;;10475332;28;20215;-71
2022/09/29 18:28:47;;;;;;;3.83;3.53;;;14.90;44.30;;;;;;10473149;28;20728;-71
2022/09/29 18:33:51;;;;;;;4.53;4.13;;;14.90;44.30;;;;;;10483171;28;20224;-71
2022/09/29 18:38:55;;;;;;;4.00;3.67;;;14.90;44.30;;;;;;10493131;28;20252;-70
2022/09/29 18:49:24;;;;;;;6.00;5.40;;;14.90;44.50;;;;;;10420926;28;20300;-71
2022/09/29 18:54:29;;;;;;;6.07;4.90;;;14.90;44.30;;;;;;10426024;28;21017;-71
2022/09/29 18:59:34;;;;;;;6.70;6.10;;;14.90;44.30;;;;;;10422276;28;20312;-71
2022/09/29 19:04:38;;;;;;;7.40;6.70;;;14.80;44.20;;;;;;10419878;28;20221;-71
2022/09/29 19:09:42;;;;;;;6.90;6.30;;;14.80;44.50;;;;;;10414522;28;20244;-71
2022/09/29 19:20:03;;;;;;;7.33;5.03;;;14.80;44.60;;;;;;10503274;22;20223;-71
2022/09/29 19:25:58;;;;;;;6.03;5.40;;;14.80;44.70;;;;;;10521884;22;20244;-71
2022/09/29 19:36:59;;;;;;;4.90;4.50;;;14.80;45.30;;;;;;10484444;27;20946;-72
2022/09/29 19:42:04;;;;;;;5.10;4.57;;;14.80;44.70;;;;;;10516252;28;20218;-72
2022/09/29 19:47:08;;;;;;;6.30;5.70;;;14.80;44.90;;;;;;10511207;28;20230;-72
2022/09/29 19:52:11;;;;;;;6.40;5.80;;;14.80;45.60;;;;;;10509503;28;20228;-72
2022/09/29 19:57:17;;;;;;;7.63;6.03;;;14.80;44.70;;;;;;10510858;28;20250;-72
2022/09/29 20:02:20;;;;;;;6.90;6.17;;;14.80;44.80;;;;;;10518712;28;20219;-72
2022/09/29 20:07:24;;;;;;;6.57;5.97;;;14.80;44.70;;;;;;10506517;28;20236;-71
2022/09/29 20:12:29;;;;;;;7.13;5.43;;;14.80;44.90;;;;;;10511106;28;20220;-72
2022/09/29 20:17:32;;;;;;;6.30;5.70;;;14.70;44.90;;;;;;10505755;28;20255;-71
2022/09/29 20:22:39;;;;;;;7.00;5.50;;;14.80;44.80;;;;;;10507196;28;20252;-71
2022/09/29 20:27:43;;;;;;;4.97;4.27;;;14.80;44.80;;;;;;10501949;28;20227;-71
2022/09/29 20:32:46;;;;;;;5.23;4.83;;;14.80;44.70;;;;;;10495181;28;20536;-71
2022/09/29 20:37:50;;;;;;;4.60;4.20;;;14.70;44.50;;;;;;10498767;28;20231;-71
2022/09/29 20:42:54;;;;;;;6.47;5.13;;;14.70;44.50;;;;;;10507090;28;20269;-71
2022/09/29 20:47:57;;;;;;;5.70;5.20;;;14.70;44.80;;;;;;10504290;28;20227;-71
2022/09/29 20:53:00;;;;;;;5.70;5.20;;;14.70;44.50;;;;;;10507726;28;20220;-71
2022/09/29 20:58:05;;;;;;;5.80;5.13;;;14.70;44.50;;;;;;10505698;28;20268;-72
2022/09/29 21:03:08;;;;;;;5.10;4.70;;;14.70;44.60;;;;;;10501516;28;20219;-71
2022/09/29 21:08:11;;;;;;;9.07;6.20;;;14.60;44.30;;;;;;10501736;28;20836;-72
2022/09/29 21:13:19;;;;;;;8.80;6.60;;;14.60;44.00;;;;;;10499844;28;20231;-71
2022/09/29 21:18:22;;;;;;;11.30;7.30;;;14.60;44.50;;;;;;10509422;28;20251;-71
2022/09/29 21:23:26;;;;;;;7.57;5.23;;;14.50;44.10;;;;;;10505342;28;20220;-71
2022/09/29 21:28:31;;;;;;;6.80;5.20;;;14.50;44.30;;;;;;10499529;28;20597;-72
2022/09/29 21:33:35;;;;;;;4.80;4.30;;;14.40;44.60;;;;;;10503643;28;20317;-71
2022/09/29 21:38:42;;;;;;;5.50;5.00;;;14.30;44.70;;;;;;10502834;28;20236;-71
2022/09/29 21:43:46;;;;;;;8.17;5.50;;;14.30;44.90;;;;;;10504021;28;20297;-71
2022/09/29 21:48:51;;;;;;;5.13;4.73;;;14.30;44.90;;;;;;10497452;28;20273;-71
2022/09/29 21:53:56;;;;;;;5.53;5.03;;;14.30;44.70;;;;;;10490206;28;20220;-71
2022/09/29 21:59:01;;;;;;;5.67;5.10;;;14.30;44.50;;;;;;10500253;28;20234;-71
2022/09/29 22:04:04;;;;;;;5.40;4.90;;;14.30;44.80;;;;;;10501347;28;20673;-72
2022/09/29 22:09:08;;;;;;;6.43;5.77;;;14.20;44.50;;;;;;10499150;28;20718;-72
2022/09/29 22:14:14;;;;;;;5.17;4.77;;;14.20;45.00;;;;;;10501988;28;20638;-71
2022/09/29 22:19:18;;;;;;;5.47;4.90;;;14.20;45.90;;;;;;10501456;28;20262;-71
2022/09/29 22:24:27;;;;;;;5.03;4.53;;;14.20;45.00;;;;;;10496710;28;20322;-71
2022/09/29 22:29:31;;;;;;;4.73;4.33;;;14.20;45.10;;;;;;10501004;28;20232;-71
2022/09/29 22:34:34;;;;;;;6.10;4.23;;;14.20;45.30;;;;;;10502876;28;20228;-71
2022/09/29 22:39:37;;;;;;;4.40;4.10;;;14.20;45.10;;;;;;10500778;28;20236;-71
2022/09/29 22:44:42;;;;;;;4.83;4.00;;;14.20;45.00;;;;;;10500521;28;20284;-71
2022/09/29 22:49:45;;;;;;;5.23;4.83;;;14.20;45.10;;;;;;10503960;28;20227;-71
2022/09/29 22:54:48;;;;;;;4.33;3.93;;;14.20;45.00;;;;;;10501178;28;20236;-71
2022/09/29 22:59:53;;;;;;;4.90;4.40;;;14.20;45.60;;;;;;10506091;28;20219;-71
2022/09/29 23:04:56;;;;;;;5.20;4.40;;;14.20;45.00;;;;;;10508734;28;20231;-71
2022/09/29 23:09:59;;;;;;;4.90;4.37;;;14.20;44.80;;;;;;10505439;28;20273;-71
2022/09/29 23:15:04;;;;;;;5.33;4.30;;;14.20;44.80;;;;;;10509998;28;20648;-72
2022/09/29 23:20:08;;;;;;;4.60;4.20;;;14.20;45.00;;;;;;10506042;28;20225;-72
2022/09/29 23:25:11;;;;;;;3.90;3.60;;;14.10;44.60;;;;;;10503974;28;20232;-72
2022/09/29 23:30:16;;;;;;;4.40;4.07;;;14.10;44.70;;;;;;10497660;28;20239;-71
2022/09/29 23:35:19;;;;;;;4.40;4.00;;;14.00;44.80;;;;;;10501561;28;20925;-72
2022/09/29 23:40:23;;;;;;;4.13;3.73;;;14.00;44.70;;;;;;10503183;28;20711;-71
2022/09/29 23:45:27;;;;;;;3.93;3.63;;;14.00;44.80;;;;;;10510385;28;20224;-71
2022/09/29 23:50:31;;;;;;;3.27;2.90;;;13.90;44.90;;;;;;10506057;28;21099;-71
2022/09/29 23:55:35;;;;;;;3.30;3.10;;;13.90;44.80;;;;;;10500975;28;20319;-72
